createdAt,value
2022-10-07T00:02:10.445Z,4.85
2022-10-07T00:04:45.231Z,5.63
2022-10-07T00:07:15.218Z,5.75
2022-10-07T00:09:44.855Z,5.40
2022-10-07T00:12:13.308Z,6.07
2022-10-07T00:14:42.654Z,6.07
2022-10-07T00:17:11.130Z,6.30
2022-10-07T00:19:39.725Z,6.07
2022-10-07T00:22:07.944Z,6.38
2022-10-07T00:24:36.140Z,5.87
2022-10-07T00:27:05.849Z,6.15
2022-10-07T00:29:34.385Z,6.15
2022-10-07T00:32:02.581Z,6.15
2022-10-07T00:34:31.114Z,6.10
2022-10-07T00:36:59.282Z,6.60
2022-10-07T00:39:27.407Z,6.57
2022-10-07T00:41:55.420Z,6.18
2022-10-07T00:44:39.985Z,5.90
2022-10-07T00:47:13.588Z,6.00
2022-10-07T00:49:46.525Z,5.80
2022-10-07T00:52:15.080Z,6.03
2022-10-07T00:54:43.763Z,6.05
2022-10-07T00:57:12.821Z,6.13
2022-10-07T00:59:42.237Z,6.20
2022-10-07T01:02:10.772Z,6.13
2022-10-07T01:04:40.360Z,6.32
2022-10-07T01:07:08.776Z,5.90
2022-10-07T01:09:37.196Z,5.95
2022-10-07T01:12:11.178Z,6.00
2022-10-07T01:14:53.479Z,5.67
2022-10-07T01:17:28.720Z,5.90
2022-10-07T01:20:19.986Z,6.00
2022-10-07T01:22:59.691Z,5.95
2022-10-07T01:25:43.628Z,6.15
2022-10-07T01:28:18.735Z,6.57
2022-10-07T01:30:52.710Z,5.90
2022-10-07T01:33:28.868Z,6.60
2022-10-07T01:36:02.105Z,6.40
2022-10-07T01:38:33.288Z,6.05
2022-10-07T01:41:05.717Z,6.30
2022-10-07T01:43:36.392Z,5.80
2022-10-07T01:46:07.624Z,6.38
2022-10-07T01:48:37.262Z,5.72
2022-10-07T01:51:07.955Z,5.18
2022-10-07T01:53:49.885Z,5.67
2022-10-07T01:56:39.741Z,6.20
2022-10-07T01:59:46.720Z,5.68
2022-10-07T02:02:24.320Z,5.88
2022-10-07T02:04:59.322Z,5.70
2022-10-07T02:07:40.067Z,6.00
2022-10-07T02:10:14.476Z,5.88
2022-10-07T02:12:48.009Z,6.13
2022-10-07T02:15:22.879Z,5.70
2022-10-07T02:17:56.164Z,5.80
2022-10-07T02:20:28.281Z,5.67
2022-10-07T02:23:01.301Z,5.18
2022-10-07T02:25:36.125Z,5.95
2022-10-07T02:28:07.968Z,5.60
2022-10-07T02:30:37.869Z,6.10
2022-10-07T02:33:09.834Z,5.43
2022-10-07T02:35:42.998Z,6.00
2022-10-07T02:38:12.916Z,7.43
2022-10-07T02:40:45.577Z,6.50
2022-10-07T02:43:23.052Z,6.55
2022-10-07T02:45:59.133Z,6.10
2022-10-07T02:48:34.035Z,6.28
2022-10-07T02:51:07.513Z,5.95
2022-10-07T02:53:36.862Z,6.18
2022-10-07T02:56:07.522Z,6.22
2022-10-07T02:58:37.012Z,5.60
2022-10-07T03:01:09.119Z,5.28
2022-10-07T03:03:40.218Z,5.70
2022-10-07T03:06:09.618Z,5.38
2022-10-07T03:08:38.336Z,5.43
2022-10-07T03:11:07.816Z,6.20
2022-10-07T03:13:36.307Z,5.38
2022-10-07T03:16:05.572Z,6.20
2022-10-07T03:18:34.522Z,5.45
2022-10-07T03:21:26.133Z,5.50
2022-10-07T03:23:57.198Z,5.27
2022-10-07T03:26:31.073Z,5.57
2022-10-07T03:28:59.760Z,6.07
2022-10-07T03:31:29.182Z,5.68
2022-10-07T03:33:59.801Z,5.97
2022-10-07T03:36:30.621Z,5.47
2022-10-07T03:38:58.997Z,6.05
2022-10-07T03:41:27.717Z,6.57
2022-10-07T03:43:59.337Z,5.60
2022-10-07T03:46:29.166Z,5.95
2022-10-07T03:48:58.486Z,6.33
2022-10-07T03:51:27.686Z,6.00
2022-10-07T03:53:57.721Z,6.07
2022-10-07T03:56:29.159Z,5.40
2022-10-07T03:59:03.353Z,5.65
2022-10-07T04:01:33.118Z,6.20
2022-10-07T04:04:02.658Z,5.60
2022-10-07T04:06:35.677Z,5.82
2022-10-07T04:09:09.606Z,6.20
2022-10-07T04:11:40.542Z,5.85
2022-10-07T04:14:09.940Z,5.83
2022-10-07T04:16:39.831Z,5.80
2022-10-07T04:19:10.463Z,5.93
2022-10-07T04:21:38.525Z,5.53
2022-10-07T04:24:07.072Z,6.18
2022-10-07T04:26:38.231Z,5.63
2022-10-07T04:29:06.740Z,5.40
2022-10-07T04:31:35.300Z,5.68
2022-10-07T04:34:06.903Z,5.20
2022-10-07T04:36:39.939Z,5.57
2022-10-07T04:39:14.671Z,6.00
2022-10-07T04:41:51.171Z,6.10
2022-10-07T04:44:23.646Z,5.70
2022-10-07T04:47:00.656Z,5.78
2022-10-07T04:49:31.723Z,5.60
2022-10-07T04:52:04.185Z,6.03
2022-10-07T04:54:39.455Z,5.30
2022-10-07T04:57:10.030Z,5.47
2022-10-07T04:59:46.138Z,5.80
2022-10-07T05:02:18.697Z,5.90
2022-10-07T05:04:48.067Z,5.77
2022-10-07T05:07:18.391Z,5.88
2022-10-07T05:09:47.169Z,6.03
2022-10-07T05:12:20.662Z,5.70
2022-10-07T05:14:50.038Z,5.97
2022-10-07T05:17:24.162Z,5.90
2022-10-07T05:19:52.789Z,5.25
2022-10-07T05:22:21.481Z,6.00
2022-10-07T05:24:50.048Z,5.68
2022-10-07T05:27:22.087Z,6.15
2022-10-07T05:29:50.507Z,5.47
2022-10-07T05:32:18.883Z,5.80
2022-10-07T05:34:50.254Z,5.50
2022-10-07T05:37:20.619Z,5.90
2022-10-07T05:39:49.826Z,5.53
2022-10-07T05:42:22.593Z,5.30
2022-10-07T05:44:57.245Z,5.68
2022-10-07T05:47:25.986Z,5.55
2022-10-07T05:49:57.186Z,5.80
2022-10-07T05:52:25.937Z,5.43
2022-10-07T05:54:55.023Z,5.83
2022-10-07T05:57:24.634Z,6.00
2022-10-07T05:59:58.732Z,5.88
2022-10-07T06:02:30.108Z,6.03
2022-10-07T06:07:52.787Z,5.83
2022-10-07T06:10:38.819Z,7.32
2022-10-07T06:13:09.470Z,7.82
2022-10-07T06:15:40.492Z,8.35
2022-10-07T06:18:09.800Z,8.00
2022-10-07T06:20:38.366Z,8.20
2022-10-07T06:23:07.946Z,8.00
2022-10-07T06:25:36.515Z,9.07
2022-10-07T06:28:04.611Z,8.00
2022-10-07T06:30:36.596Z,9.75
2022-10-07T06:33:05.550Z,8.80
2022-10-07T06:35:37.019Z,8.73
2022-10-07T06:38:06.737Z,8.55
2022-10-07T06:40:36.288Z,8.38
2022-10-07T06:43:05.029Z,7.63
2022-10-07T06:45:44.244Z,7.17
2022-10-07T06:48:17.036Z,7.18
2022-10-07T06:50:53.462Z,7.35
2022-10-07T06:53:25.547Z,6.97
2022-10-07T06:56:01.926Z,8.00
2022-10-07T06:58:32.859Z,6.83
2022-10-07T07:01:03.770Z,7.40
2022-10-07T07:03:33.106Z,6.85
2022-10-07T07:06:03.428Z,6.72
2022-10-07T07:08:35.364Z,6.55
2022-10-07T07:11:28.527Z,6.83
2022-10-07T07:13:59.131Z,6.18
2022-10-07T07:16:30.664Z,6.03
2022-10-07T07:19:01.879Z,6.35
2022-10-07T07:21:31.644Z,6.72
2022-10-07T07:24:01.430Z,6.57
2022-10-07T07:26:35.334Z,6.70
2022-10-07T07:29:08.012Z,7.35
2022-10-07T07:31:45.917Z,7.57
2022-10-07T07:34:15.947Z,7.47
2022-10-07T07:36:55.105Z,7.67
2022-10-07T07:39:28.360Z,6.60
2022-10-07T07:42:08.840Z,7.15
2022-10-07T07:44:39.097Z,6.97
2022-10-07T07:47:15.668Z,7.00
2022-10-07T07:49:44.844Z,6.40
2022-10-07T07:52:18.461Z,6.40
2022-10-07T07:54:51.736Z,6.65
2022-10-07T07:57:22.348Z,6.50
2022-10-07T07:59:53.162Z,6.32
2022-10-07T08:02:23.801Z,6.57
2022-10-07T08:04:54.945Z,6.45
2022-10-07T08:07:26.702Z,6.28
2022-10-07T08:09:55.250Z,5.93
2022-10-07T08:12:26.743Z,6.07
2022-10-07T08:14:58.088Z,6.00
2022-10-07T08:17:35.095Z,6.70
2022-10-07T08:20:11.231Z,6.25
2022-10-07T08:22:40.520Z,6.10
2022-10-07T08:25:09.859Z,6.95
2022-10-07T08:27:40.884Z,6.63
2022-10-07T08:30:15.798Z,6.57
2022-10-07T08:33:01.050Z,6.22
2022-10-07T08:35:30.005Z,6.63
2022-10-07T08:37:58.502Z,6.95
2022-10-07T08:40:26.999Z,7.13
2022-10-07T08:42:59.539Z,6.50
2022-10-07T08:45:58.042Z,6.70
2022-10-07T08:48:33.860Z,6.70
2022-10-07T08:51:12.648Z,7.32
2022-10-07T08:53:44.568Z,7.90
2022-10-07T08:56:17.467Z,8.07
2022-10-07T08:58:55.495Z,8.80
2022-10-07T09:01:36.839Z,10.43
2022-10-07T09:04:19.140Z,9.80
2022-10-07T09:06:54.262Z,10.73
2022-10-07T09:09:27.585Z,10.90
2022-10-07T09:11:57.430Z,12.48
2022-10-07T09:14:29.891Z,12.85
2022-10-07T09:17:03.195Z,14.07
2022-10-07T09:19:38.242Z,12.90
2022-10-07T09:22:13.156Z,13.25
2022-10-07T09:24:46.223Z,13.32
2022-10-07T09:27:18.691Z,13.55
2022-10-07T09:29:47.366Z,12.55
2022-10-07T09:32:18.823Z,13.43
2022-10-07T09:34:48.967Z,13.75
2022-10-07T09:37:20.805Z,13.07
2022-10-07T09:39:55.407Z,13.32
2022-10-07T09:42:34.648Z,13.98
2022-10-07T09:45:05.181Z,14.60
2022-10-07T09:47:40.009Z,14.30
2022-10-07T09:50:36.491Z,12.85
2022-10-07T09:53:06.228Z,13.45
2022-10-07T09:55:41.194Z,13.38
2022-10-07T09:58:20.185Z,13.83
2022-10-07T10:00:49.829Z,13.90
2022-10-07T10:03:19.680Z,14.40
2022-10-07T10:05:58.601Z,13.57
2022-10-07T10:08:30.039Z,13.40
2022-10-07T10:10:59.556Z,12.97
2022-10-07T10:13:33.624Z,13.30
2022-10-07T10:16:03.167Z,12.52
2022-10-07T10:18:37.920Z,13.00
2022-10-07T10:21:30.670Z,12.95
2022-10-07T10:24:00.343Z,13.00
2022-10-07T10:27:01.614Z,13.23
2022-10-07T10:29:47.503Z,13.43
2022-10-07T10:32:41.982Z,12.68
2022-10-07T10:35:16.941Z,12.13
2022-10-07T10:38:02.518Z,10.97
2022-10-07T10:40:37.036Z,10.85
2022-10-07T10:43:18.901Z,10.45
2022-10-07T10:46:10.868Z,9.85
2022-10-07T10:48:46.478Z,9.10
2022-10-07T10:51:34.063Z,8.90
2022-10-07T10:54:21.891Z,8.55
2022-10-07T10:56:55.806Z,8.85
2022-10-07T10:59:48.298Z,9.05
2022-10-07T11:02:38.084Z,9.68
2022-10-07T11:05:13.419Z,8.83
2022-10-07T11:07:48.101Z,9.10
2022-10-07T11:10:22.979Z,8.93
2022-10-07T11:12:57.217Z,7.80
2022-10-07T11:15:29.883Z,8.88
2022-10-07T11:18:02.832Z,8.77
2022-10-07T11:20:40.992Z,7.40
2022-10-07T11:23:20.596Z,7.07
2022-10-07T11:25:57.259Z,7.78
2022-10-07T11:28:40.534Z,6.88
2022-10-07T11:31:15.847Z,7.37
2022-10-07T11:33:51.582Z,7.78
2022-10-07T11:36:23.801Z,7.72
2022-10-07T11:39:00.523Z,7.10
2022-10-07T11:41:34.400Z,6.80
2022-10-07T11:44:08.482Z,5.87
2022-10-07T11:46:47.086Z,7.30
2022-10-07T11:49:23.583Z,7.22
2022-10-07T11:52:00.509Z,7.40
2022-10-07T11:54:31.709Z,6.32
2022-10-07T11:57:03.474Z,6.40
2022-10-07T11:59:48.262Z,6.18
2022-10-07T12:02:43.727Z,6.20
2022-10-07T12:05:50.032Z,5.82
2022-10-07T12:08:35.686Z,5.97
2022-10-07T12:11:46.557Z,5.83
2022-10-07T12:14:43.923Z,5.25
2022-10-07T12:17:28.207Z,5.55
2022-10-07T12:20:33.826Z,5.63
2022-10-07T12:23:50.736Z,5.30
2022-10-07T12:26:53.805Z,5.83
2022-10-07T12:29:49.285Z,5.38
2022-10-07T12:32:56.172Z,5.35
2022-10-07T12:35:54.779Z,4.95
2022-10-07T12:38:28.427Z,4.80
2022-10-07T12:41:19.194Z,6.00
2022-10-07T12:43:58.388Z,5.38
2022-10-07T12:47:04.362Z,5.78
2022-10-07T12:49:59.462Z,5.47
2022-10-07T12:52:44.769Z,5.63
2022-10-07T12:55:19.426Z,5.90
2022-10-07T12:57:52.139Z,5.88
2022-10-07T13:00:24.419Z,5.22
2022-10-07T13:03:45.423Z,5.15
2022-10-07T13:06:57.600Z,5.95
2022-10-07T13:10:16.952Z,5.17
2022-10-07T13:12:54.243Z,4.78
2022-10-07T13:15:34.024Z,4.70
2022-10-07T13:18:14.266Z,5.10
2022-10-07T13:20:59.080Z,5.00
2022-10-07T13:23:30.135Z,5.20
2022-10-07T13:26:01.355Z,6.13
2022-10-07T13:28:44.959Z,5.32
2022-10-07T13:31:19.289Z,5.50
2022-10-07T13:33:49.747Z,5.15
2022-10-07T13:36:21.361Z,5.97
2022-10-07T13:38:51.094Z,4.80
2022-10-07T13:41:32.927Z,5.80
2022-10-07T13:44:07.369Z,5.65
2022-10-07T13:46:37.351Z,5.43
2022-10-07T13:49:08.728Z,4.57
2022-10-07T13:51:41.116Z,4.82
2022-10-07T13:54:19.195Z,5.00
2022-10-07T13:56:48.808Z,4.50
2022-10-07T13:59:18.495Z,5.53
2022-10-07T14:01:48.688Z,4.80
2022-10-07T14:04:25.252Z,4.55
2022-10-07T14:06:56.229Z,4.70
2022-10-07T14:09:35.358Z,4.90
2022-10-07T14:12:15.172Z,5.22
2022-10-07T14:14:46.759Z,4.77
2022-10-07T14:17:24.788Z,4.93
2022-10-07T14:19:57.594Z,4.20
2022-10-07T14:22:32.277Z,4.72
2022-10-07T14:25:04.054Z,4.70
2022-10-07T14:28:05.446Z,5.40
2022-10-07T14:30:56.445Z,5.28
2022-10-07T14:33:58.981Z,5.25
2022-10-07T14:36:30.714Z,6.75
2022-10-07T14:39:04.049Z,5.57
2022-10-07T14:41:33.362Z,5.73
2022-10-07T14:44:08.169Z,7.43
2022-10-07T14:46:37.839Z,7.63
2022-10-07T14:49:15.257Z,7.45
2022-10-07T14:51:46.411Z,7.40
2022-10-07T14:54:16.212Z,7.30
2022-10-07T14:56:44.919Z,7.72
2022-10-07T14:59:16.064Z,8.00
2022-10-07T15:01:44.212Z,7.43
2022-10-07T15:04:12.779Z,8.50
2022-10-07T15:06:41.369Z,7.97
2022-10-07T15:09:13.785Z,8.27
2022-10-07T15:11:45.528Z,7.55
2022-10-07T15:14:14.177Z,8.10
2022-10-07T15:16:42.711Z,8.18
2022-10-07T15:19:11.165Z,7.47
2022-10-07T15:21:39.708Z,7.28
2022-10-07T15:24:08.494Z,7.57
2022-10-07T15:26:40.114Z,7.38
2022-10-07T15:29:08.927Z,7.47
2022-10-07T15:31:39.397Z,6.77
2022-10-07T15:34:08.080Z,7.13
2022-10-07T15:36:36.687Z,7.43
2022-10-07T15:39:05.465Z,6.43
2022-10-07T15:41:40.917Z,7.05
2022-10-07T15:44:15.907Z,7.43
2022-10-07T15:46:47.571Z,7.07
2022-10-07T15:49:17.568Z,7.03
2022-10-07T15:51:46.902Z,7.45
2022-10-07T15:54:15.468Z,7.93
2022-10-07T15:56:45.351Z,8.73
2022-10-07T15:59:14.522Z,7.88
2022-10-07T16:01:43.147Z,8.05
2022-10-07T16:04:13.631Z,7.93
2022-10-07T16:06:48.769Z,7.53
2022-10-07T16:09:17.698Z,7.27
2022-10-07T16:11:50.239Z,7.47
2022-10-07T16:14:18.865Z,7.97
2022-10-07T16:16:47.565Z,6.78
2022-10-07T16:19:16.252Z,7.55
2022-10-07T16:21:44.988Z,7.03
2022-10-07T16:24:15.927Z,7.30
2022-10-07T16:26:46.663Z,6.70
2022-10-07T16:29:34.741Z,7.38
2022-10-07T16:32:03.500Z,6.93
2022-10-07T16:34:31.960Z,7.23
2022-10-07T16:37:05.126Z,7.07
2022-10-07T16:39:33.837Z,7.82
2022-10-07T16:42:06.719Z,7.43
2022-10-07T16:44:35.894Z,8.02
2022-10-07T16:47:04.868Z,7.43
2022-10-07T16:50:00.191Z,7.60
2022-10-07T16:55:41.678Z,7.57
2022-10-07T16:58:13.589Z,9.05
2022-10-07T17:00:46.541Z,7.73
2022-10-07T17:03:21.596Z,8.45
2022-10-07T17:05:56.737Z,8.30
2022-10-07T17:08:29.466Z,7.82
2022-10-07T17:11:38.795Z,8.25
2022-10-07T17:14:15.561Z,7.70
2022-10-07T17:17:05.024Z,8.55
2022-10-07T17:20:00.516Z,9.05
2022-10-07T17:22:29.548Z,9.63
2022-10-07T17:25:07.880Z,8.50
2022-10-07T17:27:37.164Z,8.67
2022-10-07T17:30:08.990Z,7.75
2022-10-07T17:32:55.339Z,8.63
2022-10-07T17:35:32.647Z,7.80
2022-10-07T17:38:01.400Z,8.20
2022-10-07T17:40:30.381Z,7.87
2022-10-07T17:43:02.218Z,8.02
2022-10-07T17:45:32.136Z,8.55
2022-10-07T17:48:00.636Z,8.20
2022-10-07T17:50:29.319Z,10.13
2022-10-07T17:53:15.487Z,9.87
2022-10-07T17:55:53.401Z,8.73
2022-10-07T17:58:23.260Z,9.65
2022-10-07T18:00:52.754Z,10.07
2022-10-07T18:03:21.297Z,10.43
2022-10-07T18:05:53.177Z,10.00
2022-10-07T18:08:21.704Z,10.23
2022-10-07T18:10:52.988Z,10.48
2022-10-07T18:13:39.265Z,10.60
2022-10-07T18:16:10.483Z,10.38
2022-10-07T18:18:39.051Z,10.10
2022-10-07T18:21:16.052Z,10.25
2022-10-07T18:23:56.930Z,10.52
2022-10-07T18:26:30.133Z,9.85
2022-10-07T18:29:28.403Z,9.85
2022-10-07T18:32:02.019Z,9.07
2022-10-07T18:34:34.711Z,9.75
2022-10-07T18:37:08.119Z,10.38
2022-10-07T18:39:48.841Z,10.48
2022-10-07T18:42:48.776Z,9.55
2022-10-07T18:45:22.269Z,8.63
2022-10-07T18:51:04.490Z,9.73
2022-10-07T18:53:35.211Z,9.95
2022-10-07T18:56:08.092Z,9.52
2022-10-07T18:58:42.368Z,10.57
2022-10-07T19:01:18.085Z,9.75
2022-10-07T19:04:00.435Z,9.85
2022-10-07T19:09:39.994Z,9.38
2022-10-07T19:12:28.720Z,9.40
2022-10-07T19:14:56.361Z,9.95
2022-10-07T19:17:36.133Z,10.27
2022-10-07T19:20:06.354Z,10.93
2022-10-07T19:22:36.281Z,17.95
2022-10-07T19:25:22.427Z,44.37
2022-10-07T19:27:52.526Z,18.63
2022-10-07T19:30:20.972Z,28.17
2022-10-07T19:32:49.624Z,11.68
2022-10-07T19:35:19.335Z,11.77
2022-10-07T19:37:48.054Z,10.63
2022-10-07T19:40:17.442Z,10.25
2022-10-07T19:42:47.414Z,10.82
2022-10-07T19:45:16.364Z,12.43
2022-10-07T19:47:45.707Z,14.02
2022-10-07T19:50:13.943Z,13.90
2022-10-07T19:52:43.635Z,21.45
2022-10-07T19:55:11.803Z,16.30
2022-10-07T19:57:43.280Z,18.73
2022-10-07T20:00:12.679Z,40.95
2022-10-07T20:02:45.810Z,17.10
2022-10-07T20:05:14.972Z,13.20
2022-10-07T20:07:47.834Z,25.38
2022-10-07T20:10:17.123Z,72.82
2022-10-07T20:12:45.743Z,17.65
2022-10-07T20:15:14.762Z,24.90
2022-10-07T20:17:45.202Z,17.40
2022-10-07T20:20:16.997Z,26.30
2022-10-07T20:22:49.397Z,16.40
2022-10-07T20:25:18.401Z,12.77
2022-10-07T20:27:49.111Z,34.30
2022-10-07T20:30:18.435Z,42.72
2022-10-07T20:32:47.193Z,41.78
2022-10-07T20:35:16.033Z,12.90
2022-10-07T20:37:44.784Z,11.50
2022-10-07T20:43:42.478Z,11.65
2022-10-07T20:46:16.399Z,14.38
2022-10-07T20:48:45.787Z,21.30
2022-10-07T20:51:14.389Z,16.70
2022-10-07T20:53:42.856Z,15.00
2022-10-07T20:56:15.814Z,29.38
2022-10-07T20:58:52.591Z,28.52
2022-10-07T21:01:25.742Z,16.55
2022-10-07T21:03:54.181Z,14.02
2022-10-07T21:06:22.537Z,12.67
2022-10-07T21:08:57.463Z,11.93
2022-10-07T21:11:36.525Z,12.10
2022-10-07T21:14:07.484Z,11.50
2022-10-07T21:16:36.465Z,12.38
2022-10-07T21:19:04.911Z,12.70
2022-10-07T21:21:33.398Z,11.77
2022-10-07T21:24:01.697Z,12.32
2022-10-07T21:26:31.176Z,12.80
2022-10-07T21:28:59.772Z,12.90
2022-10-07T21:31:29.579Z,13.20
2022-10-07T21:34:07.673Z,13.48
2022-10-07T21:36:41.773Z,13.20
2022-10-07T21:39:12.540Z,13.05
2022-10-07T21:41:42.723Z,14.07
2022-10-07T21:44:13.245Z,13.30
2022-10-07T21:46:45.579Z,12.50
2022-10-07T21:49:14.688Z,14.07
2022-10-07T21:51:43.848Z,14.05
2022-10-07T21:54:15.399Z,13.60
2022-10-07T21:56:46.370Z,13.10
2022-10-07T21:59:15.066Z,13.10
2022-10-07T22:01:43.540Z,13.07
2022-10-07T22:04:17.889Z,13.73
2022-10-07T22:07:04.502Z,13.82
2022-10-07T22:09:33.529Z,14.20
2022-10-07T22:12:03.348Z,13.52
2022-10-07T22:14:32.094Z,14.70
2022-10-07T22:17:00.375Z,14.63
2022-10-07T22:19:28.837Z,13.60
2022-10-07T22:21:57.190Z,14.67
2022-10-07T22:24:34.945Z,13.50
2022-10-07T22:27:04.674Z,14.60
2022-10-07T22:33:15.262Z,13.65
2022-10-07T22:35:47.302Z,14.10
2022-10-07T22:38:16.326Z,14.70
2022-10-07T22:40:44.726Z,13.70
2022-10-07T22:43:14.164Z,14.57
2022-10-07T22:45:43.266Z,14.13
2022-10-07T22:48:11.240Z,14.50
2022-10-07T22:50:39.615Z,13.73
2022-10-07T22:53:08.004Z,14.18
2022-10-07T22:55:37.221Z,13.27
2022-10-07T22:58:05.607Z,13.77
2022-10-07T23:00:35.159Z,13.10
2022-10-07T23:03:03.813Z,12.55
2022-10-07T23:05:33.546Z,12.70
2022-10-07T23:08:01.880Z,13.27
2022-10-07T23:10:30.199Z,12.30
2022-10-07T23:12:59.183Z,13.20
2022-10-07T23:15:27.244Z,13.00
2022-10-07T23:17:56.651Z,12.27
2022-10-07T23:20:25.485Z,13.82
2022-10-07T23:22:53.910Z,13.35
2022-10-07T23:25:22.474Z,12.57
2022-10-07T23:27:51.027Z,12.52
2022-10-07T23:30:19.464Z,13.23
2022-10-07T23:32:48.193Z,12.70
2022-10-07T23:35:17.973Z,13.10
2022-10-07T23:37:46.218Z,12.83
2022-10-07T23:40:14.654Z,12.82
2022-10-07T23:42:43.157Z,12.70
2022-10-07T23:45:11.905Z,12.43
2022-10-07T23:47:40.379Z,13.32
2022-10-07T23:50:09.763Z,12.17
2022-10-07T23:52:39.734Z,12.30
2022-10-07T23:55:10.297Z,12.55
2022-10-07T23:57:38.787Z,12.93
